Alyeska Resort
Max's Hourly Weather Roundup
ALYESKA_MAX 12/16/2017
Click Here for Graph

        DATE  TIME   Air  Wind  Wind  Wind  BATT   Rel
                    Temp   Spd   Dir  Gust  Volt  Hum%
                      F   MPH   AVG   MPH   AVG   AVG

  12/16/2017 17:00    24     0   237     0 12.65   100
  12/16/2017 16:00    24     0   227     0 12.83   100
  12/16/2017 15:00    24     0   186     0 12.62   100
  12/16/2017 14:00    25     0   115     0 12.64   100
  12/16/2017 13:00    25     0   240     0 12.60   100
  12/16/2017 12:00    25     0   108     0 12.57   100
  12/16/2017 11:00    25     0   155     0 12.56   100
  12/16/2017 10:00    25     4   139    12 12.56   100
  12/16/2017 09:00    26     8   132    21 12.56    97
  12/16/2017 08:00    26     9   123    20 12.56    94
  12/16/2017 07:00    26    14   132    27 12.56    92
  12/16/2017 06:00    26    18   128    27 12.56    95
  12/16/2017 05:00    26    19   134    28 12.56    96
  12/16/2017 04:00    26    19   136    31 12.56   100
  12/16/2017 03:00    27    19   112    39 12.56    99
  12/16/2017 02:00    26    20   100    49 12.56   100
  12/16/2017 01:00    25    16   138    52 12.56   100
  12/15/2017 24:00    26    21   106    48 12.56   100
  12/15/2017 23:00    26    35    95    77 12.56   100
  12/15/2017 22:00    26    45    93    91 12.56   100
  12/15/2017 21:00    25    38    88   102 12.56   100
  12/15/2017 20:00    25    32    83    77 12.56   100
  12/15/2017 19:00    26    38    86    88 12.56   100
  12/15/2017 18:00    26    37    96    91 12.56   100


Click Here for Graph